Arklow Freedom — EIEX9 — position and weather

sailwx.info

Track history (hours):
 
Tides and Currents Weather Stations Pressure Air Temp Water Temp Dewpoint Dewpoint Depression Visibility Wind Speed Wind Dir Waves Ship Positions

Arklow Freedom

Last reported at 2018-Jul-19 12:47 UTC. Time now 2018-Jul-20 21:58 UTC.
Position N 43°46' W 005°41'.

Length 90 m; draft 6.1 m.

Type: Cargo ship. MMSI: 250001396.

Date/timePositionNaut miles runAvg speedWind from/ knotsBaromVisibWave heightAir tempDewpointWater temp
2018-Jul-19 12:47N 43°46' W 005°41'310.6
2018-Jul-19 12:28N 43°43' W 005°41'510.7
2018-Jul-19 12:00N 43°38' W 005°40'3 6.1
2018-Jul-19 11:30N 43°35' W 005°41'0 0.0
2018-Jul-19 10:58N 43°35' W 005°41'0 0.0
2018-Jul-19 10:28N 43°35' W 005°41'0 0.0
2018-Jul-19 09:52N 43°35' W 005°41'0 0.0
2018-Jul-19 09:04N 43°35' W 005°41'0 0.0
2018-Jul-19 08:52N 43°35' W 005°41'0 0.0
2018-Jul-19 08:28N 43°35' W 005°41'0 0.0
2018-Jul-19 07:58N 43°35' W 005°41'0 0.0
2018-Jul-19 07:28N 43°35' W 005°41'0 0.0
2018-Jul-19 06:58N 43°35' W 005°41'0 0.0
2018-Jul-19 06:28N 43°35' W 005°41'0 0.0
2018-Jul-19 05:58N 43°35' W 005°41'0 0.0
2018-Jul-19 05:28N 43°35' W 005°41'0 0.0
2018-Jul-19 04:58N 43°35' W 005°41'0 0.0
2018-Jul-19 04:28N 43°35' W 005°41'0 0.0
2018-Jul-19 03:58N 43°35' W 005°41'0 0.0
2018-Jul-19 03:28N 43°35' W 005°41'0 0.0
2018-Jul-19 02:52N 43°35' W 005°41'0 0.0
2018-Jul-19 02:28N 43°35' W 005°41'0 0.0
2018-Jul-19 01:58N 43°35' W 005°41'0 0.0
2018-Jul-19 01:22N 43°35' W 005°41'0 0.0
2018-Jul-19 00:58N 43°35' W 005°41'0 0.0
2018-Jul-19 00:28N 43°35' W 005°41'0 0.0
2018-Jul-18 20:10N 43°35' W 005°41'0 0.0
2018-Jul-18 19:40N 43°35' W 005°41'0 0.0
2018-Jul-18 19:28N 43°35' W 005°41'0 0.0
2018-Jul-18 18:46N 43°35' W 005°41'0 0.0
2018-Jul-18 18:28N 43°35' W 005°41'0 0.0
2018-Jul-18 17:58N 43°35' W 005°41'0 0.0
2018-Jul-18 17:28N 43°35' W 005°41'0 0.0
2018-Jul-18 16:58N 43°35' W 005°41'0 0.0
2018-Jul-18 16:28N 43°35' W 005°41'0 0.0
2018-Jul-18 12:28N 43°35' W 005°41'0 0.0
2018-Jul-18 11:04N 43°35' W 005°41'0 0.8
2018-Jul-18 10:30N 43°35' W 005°41'5 8.9
2018-Jul-18 09:54N 43°39' W 005°44'2 4.1
2018-Jul-18 09:29N 43°40' W 005°46'  
2018-Jul-12 22:58N 47°02' W 007°33'1111.1
2018-Jul-12 21:58N 47°13' W 007°30'1410.9
2018-Jul-12 20:43N 47°27' W 007°27'2011.4
2018-Jul-12 18:58N 47°46' W 007°22'1212.2
2018-Jul-12 17:58N 47°58' W 007°18'1211.7
2018-Jul-12 16:58N 48°10' W 007°15'23311.0
2018-Jul-11 19:42N 51°60' W 006°13'210.0
2018-Jul-11 19:30N 52°02' W 006°13'5 9.7
2018-Jul-11 18:59N 52°07' W 006°12'4 9.0
2018-Jul-11 18:30N 52°10' W 006°09'4 8.5
2018-Jul-11 18:00N 52°14' W 006°06'4 8.3
2018-Jul-11 17:29N 52°18' W 006°04'4 8.5
2018-Jul-11 17:00N 52°22' W 006°03'5 9.4
2018-Jul-11 16:30N 52°27' W 006°03'28 9.7
2018-Jul-11 13:39N 52°55' W 005°58'212.2
2018-Jul-11 13:30N 52°56' W 005°57'4 7.9
2018-Jul-11 13:00N 52°60' W 005°54'7611.6
2018-Jul-11 06:26N 54°14' W 005°22'612.0
2018-Jul-11 05:56N 54°20' W 005°19'512.4
2018-Jul-11 05:30N 54°25' W 005°18'612.6
2018-Jul-11 05:00N 54°31' W 005°18'612.6
2018-Jul-11 04:30N 54°38' W 005°17'612.1
2018-Jul-11 04:00N 54°44' W 005°17'611.5
2018-Jul-11 03:29N 54°49' W 005°17'5511.4
2018-Jul-10 22:41N 55°43' W 004°60'211.8
2018-Jul-10 22:30N 55°45' W 004°59'611.6
2018-Jul-10 22:00N 55°51' W 004°57'611.2
2018-Jul-10 21:30N 55°56' W 004°54'7 8.7
2018-Jul-10 20:41N 55°56' W 004°41'210.0
2018-Jul-10 20:30N 55°56' W 004°38'5 9.7
2018-Jul-10 20:00N 55°56' W 004°30'4 8.8
2018-Jul-10 19:30N 55°53' W 004°23'2 0.1
2018-Jul-09 15:03N 55°52' W 004°21'0 0.0
2018-Jul-09 14:51N 55°52' W 004°21'0 0.0
2018-Jul-09 14:30N 55°52' W 004°21'0 0.0
2018-Jul-09 13:57N 55°52' W 004°21'0 0.0
2018-Jul-09 13:21N 55°52' W 004°21'0 0.0
2018-Jul-09 12:57N 55°52' W 004°21'  
Track history (hours):
 
Tides and Currents Weather Stations Pressure Air Temp Water Temp Dewpoint Dewpoint Depression Visibility Wind Speed Wind Dir Waves Ship Positions

Arklow Freedom

Last reported at 2018-Jul-19 12:47 UTC. Time now 2018-Jul-20 21:58 UTC.
Position N 43°46' W 005°41'.

Length 90 m; draft 6.1 m.

Type: Cargo ship. MMSI: 250001396.

Date/timePositionNaut miles runAvg speedWind from/ knotsBaromVisibWave heightAir tempDewpointWater temp
2018-Jul-19 12:47N 43°46' W 005°41'310.6
2018-Jul-19 12:28N 43°43' W 005°41'510.7
2018-Jul-19 12:00N 43°38' W 005°40'3 6.1
2018-Jul-19 11:30N 43°35' W 005°41'0 0.0
2018-Jul-19 10:58N 43°35' W 005°41'0 0.0
2018-Jul-19 10:28N 43°35' W 005°41'0 0.0
2018-Jul-19 09:52N 43°35' W 005°41'0 0.0
2018-Jul-19 09:04N 43°35' W 005°41'0 0.0
2018-Jul-19 08:52N 43°35' W 005°41'0 0.0
2018-Jul-19 08:28N 43°35' W 005°41'0 0.0
2018-Jul-19 07:58N 43°35' W 005°41'0 0.0
2018-Jul-19 07:28N 43°35' W 005°41'0 0.0
2018-Jul-19 06:58N 43°35' W 005°41'0 0.0
2018-Jul-19 06:28N 43°35' W 005°41'0 0.0
2018-Jul-19 05:58N 43°35' W 005°41'0 0.0
2018-Jul-19 05:28N 43°35' W 005°41'0 0.0
2018-Jul-19 04:58N 43°35' W 005°41'0 0.0
2018-Jul-19 04:28N 43°35' W 005°41'0 0.0
2018-Jul-19 03:58N 43°35' W 005°41'0 0.0
2018-Jul-19 03:28N 43°35' W 005°41'0 0.0
2018-Jul-19 02:52N 43°35' W 005°41'0 0.0
2018-Jul-19 02:28N 43°35' W 005°41'0 0.0
2018-Jul-19 01:58N 43°35' W 005°41'0 0.0
2018-Jul-19 01:22N 43°35' W 005°41'0 0.0
2018-Jul-19 00:58N 43°35' W 005°41'0 0.0
2018-Jul-19 00:28N 43°35' W 005°41'0 0.0
2018-Jul-18 20:10N 43°35' W 005°41'0 0.0
2018-Jul-18 19:40N 43°35' W 005°41'0 0.0
2018-Jul-18 19:28N 43°35' W 005°41'0 0.0
2018-Jul-18 18:46N 43°35' W 005°41'0 0.0
2018-Jul-18 18:28N 43°35' W 005°41'0 0.0
2018-Jul-18 17:58N 43°35' W 005°41'0 0.0
2018-Jul-18 17:28N 43°35' W 005°41'0 0.0
2018-Jul-18 16:58N 43°35' W 005°41'0 0.0
2018-Jul-18 16:28N 43°35' W 005°41'0 0.0
2018-Jul-18 12:28N 43°35' W 005°41'0 0.0
2018-Jul-18 11:04N 43°35' W 005°41'0 0.8
2018-Jul-18 10:30N 43°35' W 005°41'5 8.9
2018-Jul-18 09:54N 43°39' W 005°44'2 4.1
2018-Jul-18 09:29N 43°40' W 005°46'  
2018-Jul-12 22:58N 47°02' W 007°33'1111.1
2018-Jul-12 21:58N 47°13' W 007°30'1410.9
2018-Jul-12 20:43N 47°27' W 007°27'2011.4
2018-Jul-12 18:58N 47°46' W 007°22'1212.2
2018-Jul-12 17:58N 47°58' W 007°18'1211.7
2018-Jul-12 16:58N 48°10' W 007°15'23311.0
2018-Jul-11 19:42N 51°60' W 006°13'210.0
2018-Jul-11 19:30N 52°02' W 006°13'5 9.7
2018-Jul-11 18:59N 52°07' W 006°12'4 9.0
2018-Jul-11 18:30N 52°10' W 006°09'4 8.5
2018-Jul-11 18:00N 52°14' W 006°06'4 8.3
2018-Jul-11 17:29N 52°18' W 006°04'4 8.5
2018-Jul-11 17:00N 52°22' W 006°03'5 9.4
2018-Jul-11 16:30N 52°27' W 006°03'28 9.7
2018-Jul-11 13:39N 52°55' W 005°58'212.2
2018-Jul-11 13:30N 52°56' W 005°57'4 7.9
2018-Jul-11 13:00N 52°60' W 005°54'7611.6
2018-Jul-11 06:26N 54°14' W 005°22'612.0
2018-Jul-11 05:56N 54°20' W 005°19'512.4
2018-Jul-11 05:30N 54°25' W 005°18'612.6
2018-Jul-11 05:00N 54°31' W 005°18'612.6
2018-Jul-11 04:30N 54°38' W 005°17'612.1
2018-Jul-11 04:00N 54°44' W 005°17'611.5
2018-Jul-11 03:29N 54°49' W 005°17'5511.4
2018-Jul-10 22:41N 55°43' W 004°60'211.8
2018-Jul-10 22:30N 55°45' W 004°59'611.6
2018-Jul-10 22:00N 55°51' W 004°57'611.2
2018-Jul-10 21:30N 55°56' W 004°54'7 8.7
2018-Jul-10 20:41N 55°56' W 004°41'210.0
2018-Jul-10 20:30N 55°56' W 004°38'5 9.7
2018-Jul-10 20:00N 55°56' W 004°30'4 8.8
2018-Jul-10 19:30N 55°53' W 004°23'2 0.1
2018-Jul-09 15:03N 55°52' W 004°21'0 0.0
2018-Jul-09 14:51N 55°52' W 004°21'0 0.0
2018-Jul-09 14:30N 55°52' W 004°21'0 0.0
2018-Jul-09 13:57N 55°52' W 004°21'0 0.0
2018-Jul-09 13:21N 55°52' W 004°21'0 0.0
2018-Jul-09 12:57N 55°52' W 004°21'  

Dump ship's entire track history